createdAt,value
2023-02-02T00:00:28.347Z,6.43
2023-02-02T00:02:55.107Z,6.39
2023-02-02T00:05:22.007Z,6.39
2023-02-02T00:07:48.951Z,6.34
2023-02-02T00:10:15.643Z,6.39
2023-02-02T00:12:42.329Z,6.37
2023-02-02T00:15:09.357Z,6.39
2023-02-02T00:17:36.138Z,6.41
2023-02-02T00:20:02.928Z,6.41
2023-02-02T00:22:29.355Z,6.42
2023-02-02T00:24:56.291Z,6.45
2023-02-02T00:27:22.765Z,6.46
2023-02-02T00:29:53.911Z,6.44
2023-02-02T00:32:20.557Z,6.48
2023-02-02T00:34:47.320Z,6.45
2023-02-02T00:37:13.915Z,6.47
2023-02-02T00:39:40.365Z,6.46
2023-02-02T00:42:10.970Z,6.46
2023-02-02T00:44:56.324Z,6.45
2023-02-02T00:47:23.030Z,6.47
2023-02-02T00:49:49.599Z,6.50
2023-02-02T00:52:17.564Z,6.53
2023-02-02T00:54:44.549Z,6.55
2023-02-02T00:57:15.217Z,6.57
2023-02-02T00:59:42.140Z,6.58
2023-02-02T01:05:16.966Z,6.54
2023-02-02T01:08:53.411Z,6.54
2023-02-02T01:11:40.000Z,6.51
2023-02-02T01:14:27.261Z,6.50
2023-02-02T01:17:15.783Z,6.53
2023-02-02T01:23:37.094Z,6.53
2023-02-02T01:26:06.844Z,6.53
2023-02-02T01:28:53.536Z,6.55
2023-02-02T01:35:16.852Z,6.46
2023-02-02T01:37:43.428Z,6.43
2023-02-02T01:40:11.100Z,6.43
2023-02-02T01:42:37.563Z,6.38
2023-02-02T01:45:42.577Z,6.44
2023-02-02T01:48:10.613Z,6.49
2023-02-02T01:51:01.685Z,6.51
2023-02-02T01:53:51.370Z,6.54
2023-02-02T01:56:52.267Z,6.64
2023-02-02T01:59:39.160Z,6.59
2023-02-02T02:02:27.875Z,6.57
2023-02-02T02:04:55.375Z,6.58
2023-02-02T02:07:22.508Z,6.59
2023-02-02T02:09:49.205Z,6.61
2023-02-02T02:12:17.056Z,6.66
2023-02-02T02:15:05.408Z,6.70
2023-02-02T02:18:08.770Z,6.77
2023-02-02T02:21:14.191Z,6.76
2023-02-02T02:24:24.685Z,6.81
2023-02-02T02:27:09.764Z,6.88
2023-02-02T02:29:48.939Z,6.87
2023-02-02T02:32:44.691Z,6.90
2023-02-02T02:35:26.062Z,6.86
2023-02-02T02:38:25.389Z,6.91
2023-02-02T02:41:00.521Z,6.90
2023-02-02T02:43:31.941Z,6.84
2023-02-02T02:45:59.002Z,6.73
2023-02-02T02:48:25.913Z,6.70
2023-02-02T02:50:52.583Z,6.68
2023-02-02T02:53:24.693Z,6.73
2023-02-02T02:55:58.064Z,6.75
2023-02-02T02:58:50.485Z,6.78
2023-02-02T03:01:48.135Z,6.76
2023-02-02T03:04:44.865Z,6.77
2023-02-02T03:07:22.817Z,6.79
2023-02-02T03:09:51.741Z,6.72
2023-02-02T03:12:18.448Z,6.68
2023-02-02T03:14:45.080Z,6.64
2023-02-02T03:17:11.897Z,6.64
2023-02-02T03:19:38.328Z,6.65
2023-02-02T03:22:04.966Z,6.67
2023-02-02T03:24:31.691Z,6.64
2023-02-02T03:26:58.178Z,6.59
2023-02-02T03:29:25.651Z,6.58
2023-02-02T03:31:52.649Z,6.66
2023-02-02T03:34:19.108Z,6.68
2023-02-02T03:36:45.860Z,6.79
2023-02-02T03:39:12.795Z,6.79
2023-02-02T03:41:39.701Z,6.84
2023-02-02T03:44:06.346Z,6.77
2023-02-02T03:46:33.225Z,6.70
2023-02-02T03:48:59.762Z,6.63
2023-02-02T03:51:26.913Z,6.58
2023-02-02T03:53:53.375Z,6.53
2023-02-02T03:56:20.154Z,6.54
2023-02-02T03:58:47.263Z,6.49
2023-02-02T04:01:15.206Z,6.44
2023-02-02T04:03:42.062Z,6.49
2023-02-02T04:06:09.359Z,6.54
2023-02-02T04:08:36.122Z,6.48
2023-02-02T04:11:03.056Z,6.48
2023-02-02T04:13:29.558Z,6.48
2023-02-02T04:16:00.704Z,6.45
2023-02-02T04:18:28.173Z,6.46
2023-02-02T04:20:59.591Z,6.41
2023-02-02T04:23:27.134Z,6.35
2023-02-02T04:25:54.365Z,6.32
2023-02-02T04:28:22.446Z,6.37
2023-02-02T04:30:53.560Z,6.37
2023-02-02T04:33:22.026Z,6.38
2023-02-02T04:35:49.518Z,6.40
2023-02-02T04:38:16.063Z,6.37
2023-02-02T04:40:44.969Z,6.36
2023-02-02T04:43:12.147Z,6.35
2023-02-02T04:45:39.300Z,6.36
2023-02-02T04:48:06.403Z,6.35
2023-02-02T04:50:33.118Z,6.42
2023-02-02T04:53:00.003Z,6.41
2023-02-02T04:55:26.929Z,6.41
2023-02-02T04:57:53.548Z,6.43
2023-02-02T05:00:20.788Z,6.44
2023-02-02T05:02:47.406Z,6.50
2023-02-02T05:05:14.960Z,6.47
2023-02-02T05:07:41.793Z,6.52
2023-02-02T05:10:10.308Z,6.60
2023-02-02T05:12:36.888Z,6.59
2023-02-02T05:15:05.348Z,6.57
2023-02-02T05:17:33.124Z,6.59
2023-02-02T05:19:59.509Z,6.57
2023-02-02T05:22:26.831Z,6.64
2023-02-02T05:24:53.472Z,6.66
2023-02-02T05:27:23.304Z,6.70
2023-02-02T05:29:49.970Z,6.73
2023-02-02T05:32:16.662Z,6.75
2023-02-02T05:34:43.580Z,6.80
2023-02-02T05:37:10.204Z,6.76
2023-02-02T05:39:36.977Z,6.77
2023-02-02T05:42:03.752Z,6.69
2023-02-02T05:44:30.669Z,6.70
2023-02-02T05:46:57.151Z,6.79
2023-02-02T05:49:26.895Z,6.77
2023-02-02T05:51:57.254Z,6.75
2023-02-02T05:54:24.538Z,6.73
2023-02-02T05:56:53.422Z,6.79
2023-02-02T05:59:20.222Z,6.80
2023-02-02T06:01:47.520Z,6.79
2023-02-02T06:04:16.018Z,6.81
2023-02-02T06:06:42.909Z,6.86
2023-02-02T06:09:09.967Z,6.90
2023-02-02T06:11:36.630Z,6.87
2023-02-02T06:14:03.132Z,6.94
2023-02-02T06:16:29.804Z,6.91
2023-02-02T06:18:56.697Z,6.97
2023-02-02T06:21:24.882Z,6.98
2023-02-02T06:23:52.377Z,6.96
2023-02-02T06:26:19.385Z,6.88
2023-02-02T06:28:50.661Z,6.84
2023-02-02T06:31:19.729Z,6.83
2023-02-02T06:33:54.853Z,6.88
2023-02-02T06:36:22.800Z,6.83
2023-02-02T06:38:51.458Z,6.86
2023-02-02T06:41:20.294Z,6.83
2023-02-02T06:43:48.329Z,6.79
2023-02-02T06:46:15.367Z,6.81
2023-02-02T06:48:42.002Z,6.82
2023-02-02T06:51:08.750Z,6.80
2023-02-02T06:53:35.462Z,6.79
2023-02-02T06:56:04.707Z,6.77
2023-02-02T06:58:32.465Z,6.77
2023-02-02T07:01:14.147Z,6.79
2023-02-02T07:03:41.441Z,6.82
2023-02-02T07:06:22.857Z,6.78
2023-02-02T07:08:57.613Z,6.80
2023-02-02T07:11:31.217Z,6.78
2023-02-02T07:13:58.365Z,6.80
2023-02-02T07:16:25.030Z,6.79
2023-02-02T07:18:51.530Z,6.78
2023-02-02T07:21:23.638Z,6.79
2023-02-02T07:23:51.197Z,6.80
2023-02-02T07:26:19.047Z,6.82
2023-02-02T07:28:47.002Z,6.85
2023-02-02T07:31:22.490Z,6.84
2023-02-02T07:33:49.634Z,6.82
2023-02-02T07:36:18.996Z,6.84
2023-02-02T07:38:47.378Z,6.83
2023-02-02T07:41:15.712Z,6.83
2023-02-02T07:43:42.526Z,6.85
2023-02-02T07:46:10.606Z,6.84
2023-02-02T07:48:37.601Z,6.86
2023-02-02T07:51:06.507Z,6.88
2023-02-02T07:53:33.972Z,6.89
2023-02-02T07:56:11.869Z,6.88
2023-02-02T07:58:38.824Z,6.88
2023-02-02T08:01:07.649Z,6.91
2023-02-02T08:03:34.931Z,6.94
2023-02-02T08:06:01.914Z,6.94
2023-02-02T08:08:28.857Z,6.97
2023-02-02T08:10:55.413Z,7.00
2023-02-02T08:13:22.193Z,6.98
2023-02-02T08:15:48.791Z,7.02
2023-02-02T08:18:15.506Z,7.02
2023-02-02T08:20:43.224Z,7.01
2023-02-02T08:23:15.495Z,7.03
2023-02-02T08:25:42.912Z,7.02
2023-02-02T08:28:09.451Z,7.00
2023-02-02T08:30:36.241Z,7.07
2023-02-02T08:33:02.860Z,7.05
2023-02-02T08:35:30.148Z,7.06
2023-02-02T08:37:56.658Z,7.09
2023-02-02T08:40:23.204Z,7.09
2023-02-02T08:42:53.476Z,7.10
2023-02-02T08:46:04.139Z,7.10
2023-02-02T08:48:12.163Z,7.13
2023-02-02T08:50:39.352Z,7.13
2023-02-02T08:53:05.940Z,7.15
2023-02-02T08:55:32.575Z,7.18
2023-02-02T08:57:59.017Z,7.23
2023-02-02T09:00:25.909Z,7.26
2023-02-02T09:02:52.450Z,7.25
2023-02-02T09:05:19.115Z,7.29
2023-02-02T09:07:48.537Z,7.26
2023-02-02T09:10:15.449Z,7.30
2023-02-02T09:12:42.309Z,7.31
2023-02-02T09:15:09.271Z,7.33
2023-02-02T09:17:35.792Z,7.36
2023-02-02T09:20:02.389Z,7.38
2023-02-02T09:22:29.091Z,7.42
2023-02-02T09:24:55.857Z,7.45
2023-02-02T09:27:22.397Z,7.46
2023-02-02T09:29:48.934Z,7.51
2023-02-02T09:32:15.759Z,7.55
2023-02-02T09:34:42.471Z,7.60
2023-02-02T09:37:09.020Z,7.61
2023-02-02T09:39:36.055Z,7.62
2023-02-02T09:42:34.708Z,7.62
2023-02-02T09:45:18.705Z,7.65
2023-02-02T09:48:00.884Z,7.67
2023-02-02T09:50:42.028Z,7.68
2023-02-02T09:53:25.146Z,7.69
2023-02-02T09:55:54.002Z,7.71
2023-02-02T09:58:49.389Z,7.71
2023-02-02T10:01:20.006Z,7.74
2023-02-02T10:04:07.986Z,7.75
2023-02-02T10:06:41.145Z,7.74
2023-02-02T10:09:10.701Z,7.76
2023-02-02T10:11:45.684Z,7.78
2023-02-02T10:14:23.194Z,7.77
2023-02-02T10:16:53.852Z,7.80
2023-02-02T10:19:21.123Z,7.81
2023-02-02T10:22:04.550Z,7.80
2023-02-02T10:24:32.674Z,7.81
2023-02-02T10:27:04.346Z,7.79
2023-02-02T10:29:48.837Z,7.81
2023-02-02T10:32:26.981Z,7.82
2023-02-02T10:35:11.102Z,7.83
2023-02-02T10:37:51.170Z,7.82
2023-02-02T10:40:33.217Z,7.80
2023-02-02T10:43:33.879Z,7.82
2023-02-02T10:46:03.918Z,7.82
2023-02-02T10:48:38.040Z,7.81
2023-02-02T10:51:23.336Z,7.81
2023-02-02T10:53:52.649Z,7.81
2023-02-02T10:56:36.437Z,7.81
2023-02-02T10:59:12.059Z,7.81
2023-02-02T11:01:38.554Z,7.80
2023-02-02T11:04:25.516Z,7.82
2023-02-02T11:06:52.417Z,7.82
2023-02-02T11:09:39.405Z,7.80
2023-02-02T11:12:33.869Z,7.84
2023-02-02T11:15:25.384Z,7.84
2023-02-02T11:17:52.047Z,7.84
2023-02-02T11:20:33.965Z,7.84
2023-02-02T11:23:03.279Z,7.85
2023-02-02T11:25:40.228Z,7.86
2023-02-02T11:28:18.635Z,7.87
2023-02-02T11:30:52.330Z,7.94
2023-02-02T11:33:36.345Z,7.94
2023-02-02T11:36:19.061Z,7.95
2023-02-02T11:38:45.874Z,7.97
2023-02-02T11:41:17.084Z,8.00
2023-02-02T11:43:52.473Z,7.99
2023-02-02T11:46:29.137Z,8.03
2023-02-02T11:49:14.813Z,8.03
2023-02-02T11:51:42.713Z,8.05
2023-02-02T11:54:19.723Z,8.08
2023-02-02T11:56:52.899Z,8.09
2023-02-02T11:59:39.391Z,8.11
2023-02-02T12:02:31.058Z,8.13
2023-02-02T12:05:09.816Z,8.18
2023-02-02T12:07:37.458Z,8.24
2023-02-02T12:10:13.718Z,8.20
2023-02-02T12:12:50.220Z,8.22
2023-02-02T12:15:50.948Z,8.24
2023-02-02T12:18:46.710Z,8.25
2023-02-02T12:21:37.244Z,8.27
2023-02-02T12:24:25.767Z,8.30
2023-02-02T12:27:15.633Z,8.35
2023-02-02T12:30:09.206Z,8.40
2023-02-02T12:32:50.027Z,8.42
2023-02-02T12:35:33.077Z,8.48
2023-02-02T12:38:29.864Z,8.53
2023-02-02T12:41:14.843Z,8.57
2023-02-02T12:44:00.049Z,8.60
2023-02-02T12:46:26.782Z,8.60
2023-02-02T12:49:18.985Z,8.63
2023-02-02T12:52:20.078Z,8.62
2023-02-02T12:55:15.124Z,8.67
2023-02-02T12:58:07.046Z,8.69
2023-02-02T13:00:48.569Z,8.69
2023-02-02T13:03:23.603Z,8.68
2023-02-02T13:06:02.335Z,8.67
2023-02-02T13:08:55.933Z,8.63
2023-02-02T13:11:36.340Z,8.64
2023-02-02T13:14:18.857Z,8.62
2023-02-02T13:16:49.354Z,8.62
2023-02-02T13:19:48.783Z,8.63
2023-02-02T13:22:26.518Z,8.63
2023-02-02T13:24:56.644Z,8.61
2023-02-02T13:27:24.885Z,8.62
2023-02-02T13:30:01.824Z,8.62
2023-02-02T13:32:36.433Z,8.63
2023-02-02T13:35:12.253Z,8.63
2023-02-02T13:37:57.523Z,8.68
2023-02-02T13:40:27.293Z,8.70
2023-02-02T13:43:32.666Z,8.73
2023-02-02T13:46:17.363Z,8.76
2023-02-02T13:48:54.932Z,8.73
2023-02-02T13:51:44.371Z,8.74
2023-02-02T13:54:50.392Z,8.73
2023-02-02T13:57:36.087Z,8.75
2023-02-02T14:00:23.396Z,8.76
2023-02-02T14:03:06.681Z,8.77
2023-02-02T14:05:41.535Z,8.78
2023-02-02T14:08:20.777Z,8.80
2023-02-02T14:10:53.765Z,8.80
2023-02-02T14:13:43.456Z,8.78
2023-02-02T14:16:41.550Z,8.80
2023-02-02T14:19:16.648Z,8.79
2023-02-02T14:21:43.099Z,8.81
2023-02-02T14:24:28.604Z,8.79
2023-02-02T14:26:55.262Z,8.82
2023-02-02T14:29:39.602Z,8.83
2023-02-02T14:32:11.353Z,8.82
2023-02-02T14:34:42.656Z,8.80
2023-02-02T14:37:25.414Z,8.77
2023-02-02T14:40:08.933Z,8.75
2023-02-02T14:43:06.531Z,8.75
2023-02-02T14:45:34.606Z,8.77
2023-02-02T14:48:09.122Z,8.75
2023-02-02T14:50:38.884Z,8.75
2023-02-02T14:53:34.926Z,8.73
2023-02-02T14:56:08.863Z,8.72
2023-02-02T14:59:00.010Z,8.70
2023-02-02T15:01:30.972Z,8.69
2023-02-02T15:04:00.653Z,8.68
2023-02-02T15:06:30.120Z,8.67
2023-02-02T15:09:23.171Z,8.65
2023-02-02T15:12:00.894Z,8.66
2023-02-02T15:14:36.643Z,8.64
2023-02-02T15:17:12.511Z,8.63
2023-02-02T15:19:45.002Z,8.63
2023-02-02T15:22:32.081Z,8.64
2023-02-02T15:25:04.772Z,8.65
2023-02-02T15:27:31.839Z,8.66
2023-02-02T15:30:04.184Z,8.64
2023-02-02T15:32:31.621Z,8.64
2023-02-02T15:35:02.898Z,8.64
2023-02-02T15:37:40.045Z,8.64
2023-02-02T15:40:21.603Z,8.63
2023-02-02T15:43:01.462Z,8.62
2023-02-02T15:45:28.126Z,8.62
2023-02-02T15:47:57.454Z,8.57
2023-02-02T15:50:25.554Z,8.56
2023-02-02T15:52:53.716Z,8.54
2023-02-02T15:55:36.088Z,8.54
2023-02-02T15:58:03.198Z,8.53
2023-02-02T16:00:30.138Z,8.54
2023-02-02T16:03:19.453Z,8.51
2023-02-02T16:05:54.467Z,8.52
2023-02-02T16:08:35.033Z,8.52
2023-02-02T16:11:08.874Z,8.51
2023-02-02T16:13:36.530Z,8.50
2023-02-02T16:16:08.937Z,8.49
2023-02-02T16:18:37.877Z,8.47
2023-02-02T16:21:14.617Z,8.43
2023-02-02T16:23:41.740Z,8.43
2023-02-02T16:26:13.035Z,8.42
2023-02-02T16:28:40.000Z,8.40
2023-02-02T16:31:07.204Z,8.38
2023-02-02T16:33:46.091Z,8.40
2023-02-02T16:36:29.674Z,8.39
2023-02-02T16:38:59.783Z,8.34
2023-02-02T16:41:36.583Z,8.27
2023-02-02T16:44:29.810Z,8.25
2023-02-02T16:46:56.895Z,8.26
2023-02-02T16:49:28.896Z,8.25
2023-02-02T16:52:21.076Z,8.22
2023-02-02T16:54:54.405Z,8.21
2023-02-02T16:57:34.156Z,8.24
2023-02-02T17:00:06.331Z,8.26
2023-02-02T17:02:41.937Z,8.26
2023-02-02T17:05:29.109Z,8.27
2023-02-02T17:08:03.928Z,8.24
2023-02-02T17:10:38.251Z,8.23
2023-02-02T17:13:30.467Z,8.26
2023-02-02T17:15:57.755Z,8.23
2023-02-02T17:18:24.589Z,8.22
2023-02-02T17:20:57.727Z,8.19
2023-02-02T17:23:26.691Z,8.18
2023-02-02T17:25:54.419Z,8.18
2023-02-02T17:28:24.030Z,8.12
2023-02-02T17:31:03.233Z,8.11
2023-02-02T17:33:34.201Z,8.10
2023-02-02T17:36:01.152Z,8.07
2023-02-02T17:38:28.319Z,8.09
2023-02-02T17:40:58.133Z,8.06
2023-02-02T17:43:26.073Z,8.02
2023-02-02T17:45:53.165Z,8.01
2023-02-02T17:48:20.719Z,8.02
2023-02-02T17:50:47.577Z,7.97
2023-02-02T17:53:17.508Z,7.97
2023-02-02T17:55:46.267Z,7.95
2023-02-02T17:58:17.054Z,7.91
2023-02-02T18:00:51.645Z,7.86
2023-02-02T18:03:23.624Z,7.83
2023-02-02T18:05:50.428Z,7.80
2023-02-02T18:08:16.969Z,7.81
2023-02-02T18:10:44.175Z,7.78
2023-02-02T18:13:16.070Z,7.77
2023-02-02T18:15:43.911Z,7.76
2023-02-02T18:18:12.368Z,7.78
2023-02-02T18:20:46.697Z,7.76
2023-02-02T18:23:18.623Z,7.75
2023-02-02T18:25:47.376Z,7.73
2023-02-02T18:28:17.345Z,7.69
2023-02-02T18:30:45.337Z,7.70
2023-02-02T18:33:13.173Z,7.67
2023-02-02T18:35:45.400Z,7.65
2023-02-02T18:38:12.920Z,7.65
2023-02-02T18:40:39.504Z,7.64
2023-02-02T18:43:06.440Z,7.63
2023-02-02T18:45:32.981Z,7.61
2023-02-02T18:47:59.535Z,7.63
2023-02-02T18:50:26.168Z,7.58
2023-02-02T18:52:53.084Z,7.57
2023-02-02T18:55:19.665Z,7.55
2023-02-02T18:57:46.385Z,7.49
2023-02-02T19:00:13.374Z,7.53
2023-02-02T19:02:40.406Z,7.55
2023-02-02T19:05:26.456Z,7.48
2023-02-02T19:07:56.138Z,7.42
2023-02-02T19:10:24.897Z,7.40
2023-02-02T19:13:06.756Z,7.41
2023-02-02T19:15:37.693Z,7.41
2023-02-02T19:18:12.222Z,7.43
2023-02-02T19:20:38.845Z,7.40
2023-02-02T19:23:16.656Z,7.40
2023-02-02T19:25:51.256Z,7.43
2023-02-02T19:28:23.290Z,7.36
2023-02-02T19:30:53.137Z,7.31
2023-02-02T19:33:21.681Z,7.24
2023-02-02T19:35:52.233Z,7.14
2023-02-02T19:38:20.587Z,7.17
2023-02-02T19:40:47.742Z,7.12
2023-02-02T19:43:25.090Z,7.09
2023-02-02T19:45:53.431Z,7.10
2023-02-02T19:48:24.580Z,7.08
2023-02-02T19:50:51.563Z,7.02
2023-02-02T19:53:28.502Z,7.01
2023-02-02T19:55:55.067Z,6.96
2023-02-02T19:58:26.987Z,6.98
2023-02-02T20:00:55.647Z,6.92
2023-02-02T20:03:28.188Z,6.92
2023-02-02T20:05:56.841Z,6.82
2023-02-02T20:08:31.918Z,6.78
2023-02-02T20:11:01.606Z,6.78
2023-02-02T20:13:31.367Z,6.79
2023-02-02T20:16:03.829Z,6.80
2023-02-02T20:18:33.683Z,6.79
2023-02-02T20:21:00.556Z,6.81
2023-02-02T20:23:40.921Z,6.78
2023-02-02T20:26:14.235Z,6.74
2023-02-02T20:28:46.095Z,6.74
2023-02-02T20:31:17.783Z,6.72
2023-02-02T20:33:48.049Z,6.68
2023-02-02T20:36:37.557Z,6.67
2023-02-02T20:39:35.520Z,6.69
2023-02-02T20:42:03.358Z,6.67
2023-02-02T20:44:31.916Z,6.68
2023-02-02T20:47:00.296Z,6.69
2023-02-02T20:49:28.908Z,6.66
2023-02-02T20:51:56.714Z,6.69
2023-02-02T20:54:24.461Z,6.67
2023-02-02T20:56:51.995Z,6.69
2023-02-02T20:59:20.133Z,6.63
2023-02-02T21:01:50.091Z,6.70
2023-02-02T21:04:17.643Z,6.65
2023-02-02T21:06:44.745Z,6.62
2023-02-02T21:09:12.316Z,6.63
2023-02-02T21:11:38.899Z,6.63
2023-02-02T21:14:05.919Z,6.62
2023-02-02T21:16:33.388Z,6.64
2023-02-02T21:19:00.926Z,6.67
2023-02-02T21:21:27.733Z,6.70
2023-02-02T21:23:56.422Z,6.66
2023-02-02T21:26:27.397Z,6.64
2023-02-02T21:28:54.138Z,6.67
2023-02-02T21:31:21.421Z,6.63
2023-02-02T21:33:50.578Z,6.62
2023-02-02T21:36:43.839Z,6.66
2023-02-02T21:39:30.837Z,6.63
2023-02-02T21:42:09.729Z,6.62
2023-02-02T21:45:05.048Z,6.59
2023-02-02T21:47:40.715Z,6.60
2023-02-02T21:50:19.723Z,6.62
2023-02-02T21:52:49.336Z,6.67
2023-02-02T21:55:25.056Z,6.62
2023-02-02T21:57:51.520Z,6.64
2023-02-02T22:00:32.616Z,6.65
2023-02-02T22:02:59.996Z,6.64
2023-02-02T22:05:33.203Z,6.63
2023-02-02T22:08:03.022Z,6.67
2023-02-02T22:10:36.375Z,6.70
2023-02-02T22:13:33.912Z,6.66
2023-02-02T22:16:00.640Z,6.63
2023-02-02T22:18:29.162Z,6.63
2023-02-02T22:20:56.417Z,6.61
2023-02-02T22:23:26.858Z,6.64
2023-02-02T22:25:56.585Z,6.68
2023-02-02T22:28:26.577Z,6.63
2023-02-02T22:30:55.092Z,6.62
2023-02-02T22:33:23.337Z,6.63
2023-02-02T22:35:50.848Z,6.64
2023-02-02T22:38:20.472Z,6.67
2023-02-02T22:40:48.199Z,6.68
2023-02-02T22:43:16.508Z,6.62
2023-02-02T22:45:44.054Z,6.63
2023-02-02T22:48:11.824Z,6.61
2023-02-02T22:50:38.645Z,6.63
2023-02-02T22:53:05.554Z,6.60
2023-02-02T22:55:33.253Z,6.62
2023-02-02T22:57:59.867Z,6.63
2023-02-02T23:00:32.902Z,6.64
2023-02-02T23:02:59.817Z,6.69
2023-02-02T23:05:27.787Z,6.69
2023-02-02T23:07:55.325Z,6.68
2023-02-02T23:10:27.738Z,6.68
2023-02-02T23:12:58.167Z,6.66
2023-02-02T23:15:24.968Z,6.70
2023-02-02T23:17:52.043Z,6.69
2023-02-02T23:20:19.068Z,6.67
2023-02-02T23:22:45.806Z,6.65
2023-02-02T23:25:14.101Z,6.64
2023-02-02T23:27:40.921Z,6.64
2023-02-02T23:30:08.957Z,6.67
2023-02-02T23:32:35.795Z,6.66
2023-02-02T23:35:03.192Z,6.65
2023-02-02T23:37:29.906Z,6.63
2023-02-02T23:39:56.416Z,6.61
2023-02-02T23:42:23.392Z,6.59
2023-02-02T23:44:49.953Z,6.55
2023-02-02T23:47:17.189Z,6.56
2023-02-02T23:49:44.059Z,6.52
2023-02-02T23:52:11.208Z,6.58
2023-02-02T23:54:38.274Z,6.58
2023-02-02T23:57:05.381Z,6.55
2023-02-02T23:59:31.812Z,6.57
